Winterthur, Delaware
Current Conditions -  °F | °C
As of 2:51 AM on Sunday 23 Nov 2014 (Local Time) from KILG Reporting Station
Clear Clear  
Wind Chill: 36°   Ceiling: Unl
Heat Index: 39°   Visibility: 10mi
Dew Point: 24°   Wind: 5mph
Humidity: 55%   Direction: 170°S
Pressure: 30.22"   Gusts: NA
Location:  39.8°N, 75.61°W
Report Text: KILG 230751Z AUTO 17004KT 10SM CLR 04/M04 A3022 RMK AO2 SLP234 T00391044
Loading
Personal Weather Stations






























Interactive Weather Map New forecast layout! Learn more

10-Day Weather Forecast

Advertisements
Track Severe Weather on mobile